createdAt,value
2018-09-12T07:22:55.356Z,-127
2018-09-12T07:23:14.012Z,-127
2018-09-12T07:23:33.018Z,-127
2018-09-12T07:23:52.324Z,-127
2018-09-12T07:24:11.145Z,-127
2018-09-12T07:24:31.701Z,-127
2018-09-12T07:24:50.630Z,-127
2018-09-12T07:25:10.330Z,-127
2018-09-12T07:27:05.843Z,-127
2018-09-12T07:27:24.960Z,-127
2018-09-12T07:27:44.776Z,-127
2018-09-12T07:28:02.517Z,-127
2018-09-12T07:28:34.304Z,-127
2018-09-12T07:28:52.298Z,-127
2018-09-12T07:29:12.352Z,-127
2018-09-12T07:29:33.129Z,-127
2018-09-12T07:29:57.384Z,-127
2018-09-12T07:30:20.367Z,-127
2018-09-12T07:30:40.832Z,-127
2018-09-12T07:31:01.222Z,-127
2018-09-12T07:31:21.293Z,-127
2018-09-12T07:31:39.231Z,-127
2018-09-12T07:32:02.041Z,-127
2018-09-12T07:32:19.871Z,-127
2018-09-12T07:32:37.735Z,-127
2018-09-12T07:32:57.134Z,-127
2018-09-12T07:33:15.332Z,-127
2018-09-12T07:33:35.223Z,-127
2018-09-12T07:33:58.155Z,-127
2018-09-12T07:34:16.154Z,-127
2018-09-12T07:34:38.541Z,-127
2018-09-12T07:34:59.576Z,-127
2018-09-12T07:35:19.390Z,-127
2018-09-12T07:35:40.193Z,-127
2018-09-12T07:35:58.119Z,-127
2018-09-12T07:36:19.171Z,-127
2018-09-12T07:36:39.772Z,-127
2018-09-12T07:37:02.279Z,-127
2018-09-12T07:37:22.486Z,-127
2018-09-12T07:37:41.371Z,-127
2018-09-12T07:37:59.486Z,-127
2018-09-12T07:38:20.234Z,-127
2018-09-12T07:38:40.041Z,-127
2018-09-12T07:39:00.189Z,-127
2018-09-12T07:39:20.090Z,-127
2018-09-12T07:39:38.057Z,-127
2018-09-12T07:39:58.133Z,-127
2018-09-12T07:40:16.354Z,-127
2018-09-12T07:40:34.434Z,-127
2018-09-12T07:40:56.804Z,-127
2018-09-12T07:41:17.280Z,-127
2018-09-12T07:41:35.173Z,-127
2018-09-12T07:41:55.917Z,-127
2018-09-12T07:42:13.773Z,-127
2018-09-12T07:42:33.335Z,-127
2018-09-12T07:42:55.458Z,-127
2018-09-12T07:43:15.555Z,-127
2018-09-12T07:43:33.466Z,-127
2018-09-12T07:43:56.519Z,-127
2018-09-12T07:44:17.498Z,-127
2018-09-12T07:44:35.615Z,-127
2018-09-12T07:44:58.080Z,-127
2018-09-12T07:45:19.539Z,-127
2018-09-12T07:45:40.008Z,-127
2018-09-12T07:46:00.582Z,-127
2018-09-12T07:46:18.838Z,-127
2018-09-12T07:46:40.488Z,-127
2018-09-12T07:47:02.073Z,-127
2018-09-12T07:47:21.792Z,-127
2018-09-12T07:47:43.391Z,-127
2018-09-12T07:48:04.432Z,-127
2018-09-12T07:48:24.689Z,-127
2018-09-12T07:48:44.983Z,-127
2018-09-12T07:49:03.586Z,-127
2018-09-12T07:49:37.958Z,-127
2018-09-12T07:49:58.554Z,-127
2018-09-12T07:50:16.483Z,-127
2018-09-12T07:50:39.020Z,-127
2018-09-12T07:50:58.551Z,-127
2018-09-12T07:51:20.003Z,-127
2018-09-12T07:52:50.232Z,-127
2018-09-12T07:53:15.340Z,-127
2018-09-12T07:53:35.284Z,-127
2018-09-12T07:53:55.693Z,-127
2018-09-12T07:54:15.893Z,-127
2018-09-12T07:54:44.131Z,-127
2018-09-12T07:55:06.319Z,-127
2018-09-12T07:55:34.753Z,-127
2018-09-12T07:55:52.456Z,-127
2018-09-12T07:56:10.104Z,-127
2018-09-12T07:56:28.069Z,-127
2018-09-12T07:56:45.951Z,-127
2018-09-12T07:57:04.031Z,-127
2018-09-12T07:57:21.581Z,-127
2018-09-12T07:57:39.206Z,-127
2018-09-12T07:57:56.697Z,-127
2018-09-12T07:58:14.852Z,-127
2018-09-12T07:58:32.342Z,-127
2018-09-12T07:58:49.883Z,-127
2018-09-12T07:59:07.438Z,-127
2018-09-12T07:59:24.972Z,-127
2018-09-12T07:59:42.483Z,-127
2018-09-12T08:00:00.683Z,-127
2018-09-12T08:00:18.169Z,-127
2018-09-12T08:06:20.679Z,-127
2018-09-12T08:06:38.274Z,-127
2018-09-12T08:06:55.904Z,-127
2018-09-12T08:07:16.052Z,-127
2018-09-12T08:07:33.767Z,-127
2018-09-12T08:07:51.301Z,-127
2018-09-12T08:08:08.910Z,-127
2018-09-12T08:08:26.578Z,-127
2018-09-12T08:08:44.489Z,-127
2018-09-12T08:09:03.231Z,-127
2018-09-12T08:09:24.906Z,-127
2018-09-12T08:09:42.299Z,-127
2018-09-12T08:09:59.984Z,24.4375
2018-09-12T08:11:51.459Z,24.375
2018-09-12T08:12:22.937Z,24.375
2018-09-12T08:12:44.117Z,24.4375
2018-09-12T08:13:03.486Z,24.5
2018-09-12T08:13:23.871Z,24.5
2018-09-12T08:13:43.556Z,24.5
2018-09-12T08:14:05.682Z,24.5
2018-09-12T08:14:26.694Z,24.5
2018-09-12T08:14:48.190Z,24.5
2018-09-12T08:15:07.998Z,24.5625
2018-09-12T08:18:44.988Z,24.375
2018-09-12T08:19:03.165Z,24.4375
2018-09-12T08:19:21.149Z,24.5
2018-09-12T08:19:39.192Z,24.4375
2018-09-12T08:19:57.349Z,24.4375
2018-09-12T08:20:15.496Z,24.4375
2018-09-12T08:20:33.604Z,24.5
2018-09-12T08:20:51.739Z,24.5
2018-09-12T08:21:09.941Z,24.5
2018-09-12T08:27:07.741Z,24.375
2018-09-12T08:27:25.851Z,24.4375
2018-09-12T08:27:43.929Z,24.4375
2018-09-12T08:28:01.983Z,24.5
2018-09-12T10:39:11.293Z,19.5625
2018-09-12T10:39:29.322Z,20.125
2018-09-12T10:39:47.294Z,19.1875
2018-09-12T10:40:05.271Z,19.0625
2018-09-12T10:40:23.443Z,19.0625
2018-09-12T10:40:41.380Z,19.0625
2018-09-12T10:40:59.350Z,19.0625
2018-09-12T10:41:18.383Z,19.0625
2018-09-12T10:41:36.475Z,19.0625
2018-09-12T10:41:54.487Z,19.0625
2018-09-12T10:42:12.524Z,19.0625
2018-09-12T10:42:30.495Z,19.0625
2018-09-12T10:42:48.525Z,19.0625
2018-09-12T10:43:06.485Z,19.0625
2018-09-12T10:43:24.475Z,19.0625
2018-09-12T10:43:42.507Z,19.0625
2018-09-12T10:44:00.574Z,19.0625
2018-09-12T10:44:18.561Z,19
2018-09-12T10:44:36.641Z,19
2018-09-12T10:44:54.657Z,19
2018-09-12T10:45:12.627Z,19
2018-09-12T10:45:30.617Z,19.0625
2018-09-12T10:45:48.627Z,19.0625
2018-09-12T10:46:06.636Z,19
2018-09-12T10:46:24.831Z,19.0625
2018-09-12T10:46:42.883Z,19
2018-09-12T10:47:01.105Z,19
2018-09-12T10:47:19.153Z,19
2018-09-12T10:47:37.261Z,19.0625
2018-09-12T10:47:55.306Z,19
2018-09-12T10:48:13.361Z,19.0625
2018-09-12T10:48:31.380Z,19.0625
2018-09-12T10:48:49.402Z,19.0625
2018-09-12T10:49:07.517Z,19
2018-09-12T10:49:25.704Z,19
2018-09-12T10:49:43.655Z,19
2018-09-12T10:50:02.469Z,19.0625
2018-09-12T10:50:20.537Z,19.0625
2018-09-12T10:50:38.630Z,19.0625
2018-09-12T10:50:56.709Z,19.125
2018-09-12T10:51:14.794Z,19.125
2018-09-12T10:51:32.813Z,19.0625
2018-09-12T10:51:50.913Z,19.0625
2018-09-12T10:52:09.143Z,19.0625
2018-09-12T10:52:27.253Z,19.125
